KBIE/BIE METAR and TAF weather

Enter ICAO airport designator
Station Type Date Time Source
KBIE METAR 2021/08/01 17:15 UTC NOAA

KBIE 011715Z AUTO 36014G18KT 5SM HZ CLR 25/13 A3023 RMK AO2 T02540133


Station Type Date Time Source
KBIE Decoded METAR 2021/08/01 17:15 UTC NOAA

Beatrice Municipal, NE, United States (KBIE) 40-18N 096-45W
Aug 01, 2021 - 01:15 PM EDT / 2021.08.01 1715 UTC
Wind: from the N (360 degrees) at 16 MPH (14 KT) gusting to 21 MPH (18 KT):0
Visibility: 5 mile(s):0
Sky conditions: clear
Weather: haze
Temperature: 77.7 F (25.4 C)
Dew Point: 55.9 F (13.3 C)
Relative Humidity: 47%
Pressure (altimeter): 30.23 in. Hg (1023 hPa)
ob: KBIE 011715Z AUTO 36014G18KT 5SM HZ CLR 25/13 A3023 RMK AO2 T02540133
cycle: 17

Station Type Date Time Source
KBIE TAF UTC NOAA

Error!

Example: see airport list